Información del aeropuerto LEZL

Información de pista
Pista 09 Longitud 11024 ft Anchura 148 ft
Elevación 83 ft Umbral 0 ft Rumbo 90
Pista 27 Longitud 11024 ft Anchura 148 ft
Elevación 111 ft Umbral 0 ft Rumbo 270
Frecuencias del aeropuerto
Tipo APP Nombre APP Frecuencia 120 MHZ
Tipo ATIS Nombre ATIS Frecuencia 118.175 MHZ
Tipo GND Nombre GND Frecuencia 121.7 MHZ
Tipo TWR Nombre TWR Frecuencia 118.1 MHZ
Radioayudas del aeropuerto
Tipo NDB Nombre Sevilla Frecuencia 420 KHZ
Tipo VOR-DME Nombre Sevilla Frecuencia 113700 KHZ
Información meteorológica del aeropuerto y NOTAM
ADDS - METARS form results

(0311 UTC 26 September 2020)
Data provider http://aviationweather.gov/metar/data/
 
METAR text: LEZL 260300Z AUTO 35004KT CAVOK 16/07 Q1021
Conditions at: LEZL (SEVILLA (CIV/MIL, ES) observed 0300 UTC 26 September 2020
Temperature: 16.0°C (61°F)
Dewpoint: 7.0°C (45°F) [RH = 55%]
Pressure (altimeter): 30.15 inches Hg (1021.0 mb)
Winds: from the N (350 degrees) at 5 MPH (4 knots; 2.1 m/s)
Visibility: 6 or more miles (10+ km)
Ceiling: ceiling and visibility are OK
Clouds: unknown
Weather: no significant weather observed at this time

METAR text: LEZL 260230Z AUTO 36003KT 330V030 CAVOK 16/07 Q1021
Conditions at: LEZL (SEVILLA (CIV/MIL, ES) observed 0230 UTC 26 September 2020
Temperature: 16.0°C (61°F)
Dewpoint: 7.0°C (45°F) [RH = 55%]
Pressure (altimeter): 30.15 inches Hg (1021.0 mb)
Winds: from the N (360 degrees) at 3 MPH (3 knots; 1.5 m/s)
Visibility: 6 or more miles (10+ km)
Ceiling: ceiling and visibility are OK
Clouds: unknown
Weather: no significant weather observed at this time

Forecast for: LEZL (SEVILLA (CIV/MIL, ES)
Text: TAF LEZL 260200Z 2603/2703 35006KT CAVOK TX29/2615Z TN16/2606Z
Forecast period: 0300 to 0700 UTC 26 September 2020
Forecast type: FROM: standard forecast or significant change
Winds: from the N (350 degrees) at 7 MPH (6 knots; 3.1 m/s)
Visibility: 6 or more miles (10+ km)
Ceiling: unknown
Clouds: missing
Weather: no significant weather forecast for this period
Text: BECMG 2607/2609 06010KT
Forecast period: 0700 to 1200 UTC 26 September 2020
Forecast type: BECOMING: Conditions expected to become as follows by 0900 UTC 26 September 2020
Winds: from the ENE (60 degrees) at 12 MPH (10 knots; 5.1 m/s)
Visibility: 6 or more miles (10+ km)
Ceiling: unknown
Clouds: missing
Weather: no significant weather forecast for this period
Text: BECMG 2612/2614 27005KT
Forecast period: 1200 UTC 26 September 2020 to 0300 UTC 27 September 2020
Forecast type: BECOMING: Conditions expected to become as follows by 1400 UTC 26 September 2020
Winds: from the W (270 degrees) at 6 MPH (5 knots; 2.6 m/s)
Visibility: 6 or more miles (10+ km)
Ceiling: unknown
Clouds: missing
Weather: no significant weather forecast for this period